Time;durP1;ratioP1;P1;durP2;ratioP2;P2;SDS_P1;SDS_P2;PMS_P1;PMS_P2;Temp;Humidity;BMP_temperature;BMP_pressure;BME280_temperature;BME280_humidity;BME280_pressure;Samples;Min_cycle;Max_cycle;Signal;HPM_P1;HPM_P2
2021/12/11 00:04:40;;;;;;;;;6.00;6.00;;;;;8.61;61.62;100792.66;6089802;23;46165;-90
2021/12/11 00:07:10;;;;;;;;;5.00;5.00;;;;;8.33;61.80;100743.13;6067933;23;48414;-90
2021/12/11 00:09:48;;;;;;;;;5.67;5.67;;;;;8.03;61.93;100718.50;6067358;23;45971;-90
2021/12/11 00:12:24;;;;;;;;;5.00;5.00;;;;;7.43;61.28;100635.59;6094086;23;45255;-90
2021/12/11 00:15:00;;;;;;;;;8.00;4.00;;;;;7.54;61.76;100656.47;6068336;23;45419;-89
2021/12/11 00:17:29;;;;;;;;;5.33;5.00;;;;;8.31;61.66;100775.97;6092805;23;45381;-87
2021/12/11 00:19:55;;;;;;;;;6.67;4.67;;;;;8.45;61.62;100816.22;6065934;23;45466;-88
2021/12/11 00:22:26;;;;;;;;;9.00;6.00;;;;;7.66;62.09;100674.63;6067326;23;45735;-87
2021/12/11 00:24:58;;;;;;;;;3.33;3.33;;;;;8.12;61.86;100767.75;6094532;23;45520;-88
2021/12/11 00:27:27;;;;;;;;;5.00;5.00;;;;;7.67;61.89;100702.00;6095027;23;45302;-89
2021/12/11 00:29:53;;;;;;;;;5.33;4.00;;;;;8.53;61.76;100834.59;6068386;23;46052;-89
2021/12/11 00:32:23;;;;;;;;;3.33;3.33;;;;;8.51;61.86;100834.63;6095320;23;45343;-89
2021/12/11 00:34:51;;;;;;;;;5.00;5.00;;;;;8.42;61.80;100840.25;6068799;23;45731;-89
2021/12/11 00:37:20;;;;;;;;;7.33;5.67;;;;;7.47;61.74;100692.03;6067923;23;48384;-91
2021/12/11 00:39:53;;;;;;;;;5.67;5.67;;;;;8.47;62.05;100867.53;6067949;23;45981;-87
2021/12/11 00:42:22;;;;;;;;;10.00;7.33;;;;;8.46;62.10;100865.78;6068550;23;45306;-86
2021/12/11 00:44:52;;;;;;;;;10.00;6.00;;;;;8.31;61.92;100853.88;6095456;23;45190;-91
2021/12/11 00:47:25;;;;;;;;;9.00;6.67;;;;;7.60;62.32;100757.91;6069434;23;48160;-92
2021/12/11 00:50:07;;;;;;;;;7.00;6.33;;;;;7.63;62.02;100761.38;6069194;23;45311;-91
2021/12/11 00:52:41;;;;;;;;;6.33;6.33;;;;;8.43;62.10;100881.84;6070692;23;45212;-93
2021/12/11 00:55:27;;;;;;;;;4.00;4.00;;;;;7.47;62.15;100731.78;6068007;23;45348;-88
2021/12/11 00:58:06;;;;;;;;;5.33;4.00;;;;;8.18;61.96;100865.78;6094692;23;46089;-89
2021/12/11 01:00:43;;;;;;;;;4.67;4.00;;;;;8.37;62.43;100897.94;6094985;23;45686;-89
2021/12/11 01:03:10;;;;;;;;;4.00;4.00;;;;;7.99;62.66;100847.78;6067676;23;45256;-88
2021/12/11 01:05:41;;;;;;;;;4.33;4.33;;;;;7.97;62.23;100839.00;6069177;23;45541;-88
2021/12/11 01:08:23;;;;;;;;;3.33;3.33;;;;;7.54;62.31;100786.41;6093279;23;45773;-87
2021/12/11 01:10:51;;;;;;;;;4.67;4.67;;;;;8.32;62.25;100907.84;6095069;23;45242;-89
2021/12/11 01:13:21;;;;;;;;;6.00;4.00;;;;;7.92;62.36;100861.31;6068376;23;45291;-89
2021/12/11 01:15:55;;;;;;;;;4.67;4.33;;;;;8.00;62.31;100881.34;6095385;23;45236;-90
2021/12/11 01:18:34;;;;;;;;;5.33;3.67;;;;;8.15;62.25;100901.28;6067913;23;47820;-89
2021/12/11 01:21:31;;;;;;;;;7.00;5.00;;;;;7.60;62.25;100826.00;6094439;23;45317;-89
2021/12/11 01:24:12;;;;;;;;;4.00;4.00;;;;;8.18;62.32;100932.16;6094703;23;45414;-89
2021/12/11 01:26:49;;;;;;;;;5.00;3.33;;;;;8.06;62.28;100909.53;6068707;23;45292;-90
2021/12/11 01:29:18;;;;;;;;;4.67;3.67;;;;;8.27;62.52;100953.13;6068761;23;48233;-90
2021/12/11 01:31:44;;;;;;;;;3.33;3.33;;;;;7.43;62.54;100818.53;6068605;23;46152;-89
2021/12/11 01:34:10;;;;;;;;;2.67;2.67;;;;;8.01;62.39;100908.78;6068563;23;45388;-89
2021/12/11 01:36:37;;;;;;;;;5.33;3.00;;;;;7.81;62.43;100894.31;6068603;23;45548;-90
2021/12/11 01:39:14;;;;;;;;;3.00;1.00;;;;;7.73;62.44;100893.69;6095289;23;45384;-90
2021/12/11 01:41:40;;;;;;;;;5.33;3.00;;;;;7.53;62.50;100862.44;6068484;23;45511;-89
2021/12/11 01:44:20;;;;;;;;;5.00;4.00;;;;;6.94;62.62;100775.75;6094613;23;45445;-89
2021/12/11 01:46:47;;;;;;;;;4.00;2.00;;;;;8.19;62.60;100979.91;6069514;23;45391;-90
2021/12/11 01:49:21;;;;;;;;;2.67;2.67;;;;;8.20;62.60;100981.63;6068249;23;47357;-90
2021/12/11 01:52:02;;;;;;;;;4.00;3.00;;;;;7.53;62.56;100881.00;6068585;23;45958;-90
2021/12/11 01:54:42;;;;;;;;;2.67;2.00;;;;;7.86;62.54;100939.28;6068188;23;45481;-90
2021/12/11 01:57:23;;;;;;;;;3.33;2.67;;;;;8.08;62.72;100962.53;6069294;23;45517;-90
2021/12/11 02:00:08;;;;;;;;;3.33;3.33;;;;;8.05;62.50;100968.81;6068911;23;47940;-90
2021/12/11 02:02:39;;;;;;;;;5.33;3.00;;;;;7.52;62.54;100892.53;6068227;23;45379;-90
2021/12/11 02:05:07;;;;;;;;;0.67;0.67;;;;;8.12;62.63;101010.19;6067686;23;45271;-90
2021/12/11 02:07:39;;;;;;;;;4.00;4.00;;;;;7.61;62.57;100923.25;6068176;23;45469;-90
2021/12/11 02:10:13;;;;;;;;;3.00;3.00;;;;;7.49;63.05;100905.91;6068942;23;47163;-90
2021/12/11 02:12:42;;;;;;;;;9.00;5.00;;;;;7.62;62.74;100940.88;6094029;23;45260;-90
2021/12/11 02:15:13;;;;;;;;;7.00;4.00;;;;;7.45;62.89;100920.16;6068225;23;45259;-90
2021/12/11 02:17:52;;;;;;;;;5.00;3.00;;;;;7.47;62.28;100930.69;6068931;23;45466;-90
2021/12/11 02:20:31;;;;;;;;;4.33;4.00;;;;;8.01;63.08;101018.47;6068209;23;47477;-89
2021/12/11 02:22:57;;;;;;;;;5.67;4.67;;;;;7.85;63.06;101009.22;6068288;23;45373;-90
2021/12/11 02:25:29;;;;;;;;;6.00;3.00;;;;;7.51;62.57;100956.22;6094990;23;45330;-90
2021/12/11 02:28:06;;;;;;;;;5.33;5.00;;;;;7.33;62.58;100931.97;6069019;23;45273;-90
2021/12/11 02:31:00;;;;;;;;;4.00;4.00;;;;;7.97;63.12;101048.66;6094501;23;45543;-90
2021/12/11 02:33:40;;;;;;;;;4.00;4.00;;;;;7.79;62.98;101015.53;6068341;23;46019;-90
2021/12/11 02:36:14;;;;;;;;;6.33;4.67;;;;;7.80;62.65;101024.41;6095239;23;45249;-90
2021/12/11 02:39:06;;;;;;;;;3.00;3.00;;;;;7.59;63.01;100999.34;6094900;23;45625;-90
2021/12/11 02:41:31;;;;;;;;;3.33;3.33;;;;;7.94;62.69;101058.53;6094868;23;45526;-90
2021/12/11 02:44:07;;;;;;;;;2.33;2.00;;;;;7.46;63.17;100982.88;6068863;23;45352;-90
2021/12/11 02:46:56;;;;;;;;;2.67;2.67;;;;;7.89;63.23;101066.59;6068829;23;45280;-90
2021/12/11 02:49:38;;;;;;;;;8.00;3.00;;;;;7.35;62.77;100975.22;6063342;23;45559;-90
2021/12/11 02:52:09;;;;;;;;;3.00;3.00;;;;;7.88;62.71;101062.19;6095166;23;45427;-90
2021/12/11 02:54:56;;;;;;;;;5.00;3.67;;;;;7.26;62.86;100970.16;6068046;23;45486;-90
2021/12/11 02:57:32;;;;;;;;;7.00;5.00;;;;;7.84;62.95;101063.19;6068087;23;45427;-90
2021/12/11 03:00:16;;;;;;;;;3.33;3.33;;;;;7.83;63.06;101067.63;6069146;23;45554;-90
2021/12/11 03:02:47;;;;;;;;;4.00;3.33;;;;;7.49;62.91;101013.72;6067595;23;48283;-90
2021/12/11 03:05:20;;;;;;;;;3.67;3.67;;;;;7.71;62.74;101052.03;6094186;23;45379;-90
2021/12/11 03:07:50;;;;;;;;;4.00;4.00;;;;;7.34;62.93;101018.53;6094786;23;45453;-90
2021/12/11 03:10:19;;;;;;;;;2.67;2.67;;;;;7.66;63.32;101061.91;6068929;23;45227;-90
2021/12/11 03:12:45;;;;;;;;;3.00;3.00;;;;;7.83;63.08;101093.31;6068173;23;47316;-90
2021/12/11 03:15:12;;;;;;;;;5.00;4.00;;;;;7.84;63.35;101097.69;6068826;23;45339;-90
2021/12/11 03:17:38;;;;;;;;;2.00;2.00;;;;;7.45;63.10;101042.13;6068354;23;45375;-90
2021/12/11 03:20:07;;;;;;;;;4.00;3.00;;;;;6.99;63.09;100987.63;6069182;23;45298;-90
2021/12/11 03:22:34;;;;;;;;;1.00;1.00;;;;;7.33;63.14;101040.66;6068484;23;48125;-88
2021/12/11 03:25:02;;;;;;;;;3.00;3.00;;;;;7.66;63.49;101104.38;6068522;23;45530;-90
2021/12/11 03:27:28;;;;;;;;;3.00;3.00;;;;;7.79;63.70;101127.00;6067927;23;45274;-90
2021/12/11 03:29:54;;;;;;;;;4.50;4.00;;;;;7.49;63.40;101088.00;6095101;23;45266;-91
2021/12/11 03:32:20;;;;;;;;;2.67;2.67;;;;;7.45;63.15;101076.59;6068620;23;46997;-90
2021/12/11 03:34:47;;;;;;;;;3.00;3.00;;;;;7.80;63.11;101130.53;6094706;23;45344;-91
2021/12/11 03:37:15;;;;;;;;;1.33;1.33;;;;;7.29;63.14;101059.34;6068682;23;45439;-90
2021/12/11 03:39:45;;;;;;;;;2.00;1.00;;;;;7.80;63.52;101149.97;6068131;23;45462;-90
2021/12/11 03:42:16;;;;;;;;;2.67;2.67;;;;;7.36;63.38;101083.00;6067874;23;47573;-90
2021/12/11 03:44:42;;;;;;;;;2.33;2.33;;;;;7.81;63.48;101150.84;6067761;23;45314;-90
2021/12/11 03:47:12;;;;;;;;;1.67;1.67;;;;;7.37;63.07;101087.41;6068463;23;45373;-90
2021/12/11 03:49:38;;;;;;;;;5.00;2.33;;;;;6.85;63.34;100998.56;6068472;23;45514;-90
2021/12/11 03:52:06;;;;;;;;;3.33;2.67;;;;;7.68;63.06;101158.25;6067286;23;47961;-90
2021/12/11 03:54:34;;;;;;;;;2.00;2.00;;;;;7.30;63.35;101076.97;6067913;23;45569;-89
2021/12/11 03:57:00;;;;;;;;;2.00;2.00;;;;;7.47;63.29;101121.63;6067178;23;45298;-90
2021/12/11 03:59:26;;;;;;;;;3.33;2.33;;;;;7.19;63.14;101078.13;6068388;23;45574;-90
2021/12/11 04:01:58;;;;;;;;;3.00;3.00;;;;;7.22;63.30;101082.47;6095105;23;45704;-90
2021/12/11 04:04:52;;;;;;;;;3.00;3.00;;;;;7.70;63.27;101160.84;6094438;23;45376;-90
2021/12/11 04:07:23;;;;;;;;;4.00;2.00;;;;;7.42;63.23;101116.44;6091585;23;45233;-90
2021/12/11 04:09:49;;;;;;;;;3.33;1.00;;;;;7.33;63.50;101109.59;6069408;23;45433;-89
2021/12/11 04:12:16;;;;;;;;;4.00;2.00;;;;;7.73;63.66;101169.63;6068491;23;47895;-90
2021/12/11 04:14:45;;;;;;;;;2.00;2.00;;;;;7.43;63.71;101126.16;6069385;23;45189;-90
2021/12/11 04:17:13;;;;;;;;;2.00;2.00;;;;;7.14;63.57;101085.31;6068620;23;45367;-90
2021/12/11 04:19:40;;;;;;;;;2.67;2.67;;;;;6.98;63.55;101068.03;6096101;23;45564;-90
2021/12/11 04:22:07;;;;;;;;;3.00;2.00;;;;;7.56;63.42;101177.09;6067969;23;47090;-90
2021/12/11 04:24:35;;;;;;;;;4.33;3.33;;;;;6.74;63.64;101035.03;6094261;23;45429;-91
2021/12/11 04:27:04;;;;;;;;;3.00;2.00;;;;;7.40;63.42;101142.16;6069206;23;45317;-90
2021/12/11 04:29:31;;;;;;;;;3.00;3.00;;;;;7.64;63.50;101185.75;6096766;23;45485;-91
2021/12/11 04:32:00;;;;;;;;;5.00;2.00;;;;;6.93;63.21;101092.00;6095535;23;45542;-91
2021/12/11 04:34:26;;;;;;;;;5.00;3.67;;;;;6.95;63.12;101099.88;6069454;23;45336;-91
2021/12/11 04:37:00;;;;;;;;;4.00;3.00;;;;;6.52;63.60;101024.94;6069667;23;45433;-91
2021/12/11 04:39:32;;;;;;;;;2.00;2.00;;;;;7.53;63.76;101195.75;6070824;23;45401;-91
2021/12/11 04:42:04;;;;;;;;;4.33;2.33;;;;;7.17;63.58;101142.69;6069605;23;48043;-91
2021/12/11 04:44:37;;;;;;;;;4.33;3.00;;;;;6.61;63.23;101068.88;6070170;23;45276;-91
2021/12/11 04:47:06;;;;;;;;;2.00;2.00;;;;;7.49;63.60;101210.88;6070191;23;45337;-91
2021/12/11 04:49:39;;;;;;;;;3.33;3.00;;;;;6.30;63.66;101013.09;6069965;23;45227;-90
2021/12/11 04:52:18;;;;;;;;;4.33;3.67;;;;;6.94;63.63;101130.81;6068943;23;46133;-90
2021/12/11 04:57:53;;;;;;;;;3.67;3.00;;;;;6.69;63.75;101101.34;6094753;23;45668;-89
2021/12/11 05:00:39;;;;;;;;;3.00;3.00;;;;;6.82;63.78;101117.84;6094504;23;45293;-90
2021/12/11 05:03:30;;;;;;;;;5.00;4.00;;;;;7.00;63.92;101145.75;6068254;23;47228;-90
2021/12/11 05:11:10;;;;;;;;;5.00;4.00;;;;;7.10;63.49;101181.72;6095433;23;45500;-90
2021/12/11 05:13:36;;;;;;;;;7.33;4.67;;;;;6.68;63.51;101127.88;6068584;23;47263;-90
2021/12/11 05:16:07;;;;;;;;;5.67;4.00;;;;;7.28;63.64;101225.50;6095045;23;45266;-90
2021/12/11 05:18:34;;;;;;;;;4.00;4.00;;;;;7.27;63.83;101218.44;6068933;23;45413;-89
2021/12/11 05:21:04;;;;;;;;;5.67;3.67;;;;;7.24;63.58;101231.78;6069986;23;45391;-90
2021/12/11 05:23:29;;;;;;;;;7.33;6.00;;;;;7.20;63.90;101232.75;6095479;23;45410;-90
2021/12/11 05:25:55;;;;;;;;;6.00;4.33;;;;;6.68;64.18;101152.59;6094756;23;45334;-90
2021/12/11 05:28:22;;;;;;;;;3.00;3.00;;;;;7.19;63.99;101254.88;6068889;23;45563;-90
2021/12/11 05:30:51;;;;;;;;;4.00;4.00;;;;;7.18;64.17;101251.31;6069872;23;45420;-90
2021/12/11 05:33:18;;;;;;;;;6.33;4.00;;;;;6.50;64.21;101145.03;6068033;23;47559;-90
2021/12/11 05:35:45;;;;;;;;;6.33;4.00;;;;;6.63;64.19;101170.38;6068906;23;45399;-90
2021/12/11 05:38:13;;;;;;;;;2.33;2.33;;;;;6.34;63.58;101128.56;6068968;23;45291;-90
2021/12/11 05:40:43;;;;;;;;;2.33;2.00;;;;;6.52;64.04;101161.75;6069548;23;45184;-90
2021/12/11 05:43:10;;;;;;;;;3.00;3.00;;;;;7.12;64.23;101277.13;6068362;23;48222;-90
2021/12/11 05:45:37;;;;;;;;;7.00;3.67;;;;;6.22;64.21;101137.63;6069021;23;45411;-89
2021/12/11 05:48:03;;;;;;;;;5.67;4.00;;;;;6.48;64.31;101186.53;6095366;23;45335;-89
2021/12/11 05:50:34;;;;;;;;;4.00;3.00;;;;;6.22;64.38;101139.41;6068550;23;45312;-89
2021/12/11 05:53:01;;;;;;;;;3.33;2.00;;;;;7.10;64.19;101301.00;6068889;23;48561;-90
2021/12/11 05:55:29;;;;;;;;;4.33;4.33;;;;;6.10;64.71;101145.81;6094564;23;45360;-90
2021/12/11 05:57:57;;;;;;;;;5.00;4.00;;;;;7.07;64.23;101313.41;6068616;23;45415;-90
2021/12/11 06:00:30;;;;;;;;;4.00;3.67;;;;;6.41;64.46;101220.22;6094662;23;45345;-90
2021/12/11 06:02:56;;;;;;;;;4.00;1.33;;;;;7.07;63.95;101339.91;6068204;23;47169;-90
2021/12/11 06:05:21;;;;;;;;;4.00;4.00;;;;;6.93;63.94;101317.22;6068201;23;46047;-90
2021/12/11 06:07:47;;;;;;;;;4.00;4.00;;;;;6.63;63.89;101281.59;6068749;23;45269;-90
2021/12/11 06:10:17;;;;;;;;;4.00;2.33;;;;;6.36;63.96;101230.00;6069725;23;45283;-90
2021/12/11 06:12:44;;;;;;;;;7.33;6.00;;;;;7.08;64.30;101347.84;6067871;23;47918;-90
2021/12/11 06:15:10;;;;;;;;;7.00;6.00;;;;;6.75;64.39;101293.75;6069072;23;45199;-91
2021/12/11 06:17:36;;;;;;;;;5.00;5.00;;;;;7.05;63.92;101347.06;6094969;23;45481;-90
2021/12/11 06:20:05;;;;;;;;;4.33;3.33;;;;;7.04;64.09;101343.50;6069432;23;45434;-91
2021/12/11 06:22:34;;;;;;;;;5.00;5.00;;;;;7.04;64.09;101346.16;6068467;23;47291;-90
2021/12/11 06:25:05;;;;;;;;;2.00;2.00;;;;;7.05;64.22;101345.28;6067902;23;45890;-89
2021/12/11 06:27:31;;;;;;;;;2.33;2.33;;;;;6.93;64.14;101335.78;6066555;23;45442;-89
2021/12/11 06:29:57;;;;;;;;;6.00;4.00;;;;;6.27;63.78;101225.75;6068667;23;45445;-89
2021/12/11 06:32:23;;;;;;;;;5.00;3.00;;;;;6.37;64.06;101250.31;6093854;23;45264;-93
2021/12/11 06:34:51;;;;;;;;;4.33;4.33;;;;;7.07;63.99;101354.06;6069423;23;45311;-89
2021/12/11 06:37:20;;;;;;;;;5.00;4.00;;;;;6.48;63.89;101256.25;6069466;23;45180;-90
2021/12/11 06:39:46;;;;;;;;;5.00;3.00;;;;;6.91;63.80;101334.06;6095606;23;45492;-90
2021/12/11 06:42:23;;;;;;;;;6.00;6.00;;;;;6.69;63.82;101310.59;6068845;23;48486;-91
2021/12/11 06:44:50;;;;;;;;;8.00;5.00;;;;;6.97;63.83;101363.94;6068701;23;45396;-88
2021/12/11 06:47:15;;;;;;;;;7.33;6.33;;;;;6.85;63.97;101339.47;6068918;23;45317;-88
2021/12/11 06:49:42;;;;;;;;;10.33;7.00;;;;;7.07;63.96;101387.63;6068290;23;45335;-86
2021/12/11 06:52:12;;;;;;;;;6.00;6.00;;;;;6.46;63.73;101299.56;6094155;23;45450;-89
2021/12/11 06:54:38;;;;;;;;;5.33;5.33;;;;;6.15;63.48;101244.50;6067863;23;45259;-86
2021/12/11 06:57:04;;;;;;;;;8.33;8.33;;;;;6.82;63.39;101363.38;6092966;23;45174;-85
2021/12/11 06:59:30;;;;;;;;;5.00;5.00;;;;;7.06;63.43;101402.66;6095834;23;45167;-91
2021/12/11 07:01:56;;;;;;;;;5.67;5.67;;;;;6.70;63.43;101354.75;6068035;23;47187;-92
2021/12/11 07:04:22;;;;;;;;;7.00;7.00;;;;;6.49;63.57;101334.81;6067529;23;45280;-90
2021/12/11 07:06:50;;;;;;;;;19.33;16.33;;;;;6.12;63.28;101287.78;6068241;23;45471;-92
2021/12/11 07:09:18;;;;;;;;;8.33;8.33;;;;;7.04;63.86;101422.16;6068314;23;45441;-90
2021/12/11 07:11:45;;;;;;;;;5.00;4.00;;;;;6.37;63.39;101321.78;6068335;23;46972;-92
2021/12/11 07:14:13;;;;;;;;;3.67;3.67;;;;;6.52;63.52;101357.72;6069871;23;45699;-94
2021/12/11 07:16:39;;;;;;;;;3.00;2.67;;;;;6.42;63.29;101340.25;6069544;23;45384;-92
2021/12/11 07:19:06;;;;;;;;;5.67;4.33;;;;;6.29;63.39;101336.91;6068916;23;45527;-92
2021/12/11 07:21:32;;;;;;;;;12.67;11.33;;;;;6.97;63.62;101453.19;6068605;23;47092;-89
2021/12/11 07:23:58;;;;;;;;;11.67;11.67;;;;;6.40;63.59;101369.38;6067768;23;46142;-89
2021/12/11 07:26:32;;;;;;;;;14.00;11.00;;;;;6.95;63.55;101450.59;6067791;23;45375;-91
2021/12/11 07:29:05;;;;;;;;;9.33;9.00;;;;;5.96;63.69;101296.00;6068768;23;45503;-92
2021/12/11 07:31:31;;;;;;;;;11.33;11.00;;;;;6.76;63.59;101430.56;6068150;23;47135;-92
2021/12/11 07:33:57;;;;;;;;;10.33;7.33;;;;;6.94;63.78;101463.84;6068720;23;45393;-90
2021/12/11 07:36:24;;;;;;;;;12.67;12.67;;;;;6.39;63.55;101369.41;6070844;23;45326;-92
2021/12/11 07:38:49;;;;;;;;;14.00;14.00;;;;;6.87;63.48;101463.06;6070320;23;45489;-91
2021/12/11 07:41:16;;;;;;;;;18.67;17.33;;;;;6.93;63.54;101468.28;6069812;23;47241;-88
2021/12/11 07:43:43;;;;;;;;;15.00;15.00;;;;;6.96;64.25;101483.25;6069490;23;45274;-86
2021/12/11 07:46:13;;;;;;;;;14.00;10.33;;;;;6.87;64.03;101468.38;6094703;23;45334;-89
2021/12/11 07:48:39;;;;;;;;;13.00;11.00;;;;;6.52;64.24;101408.03;6070154;23;45551;-88
2021/12/11 07:51:05;;;;;;;;;14.67;11.67;;;;;7.05;64.19;101492.84;6068096;23;46900;-91
2021/12/11 07:53:30;;;;;;;;;17.67;13.67;;;;;6.45;64.06;101401.09;6095711;23;45242;-92
2021/12/11 07:55:56;;;;;;;;;15.33;13.00;;;;;6.65;63.86;101446.66;6070653;23;45241;-90
2021/12/11 07:58:22;;;;;;;;;14.00;11.67;;;;;5.83;63.45;101298.81;6071573;23;45203;-91
2021/12/11 08:00:49;;;;;;;;;16.00;15.00;;;;;6.97;63.97;101485.00;6096043;23;45524;-89
2021/12/11 08:03:15;;;;;;;;;16.00;14.67;;;;;6.37;63.96;101403.88;6068535;23;45981;-90
2021/12/11 08:05:44;;;;;;;;;14.00;14.00;;;;;6.93;64.21;101497.44;6095724;23;45328;-90
2021/12/11 08:08:10;;;;;;;;;12.00;11.00;;;;;6.46;64.06;101421.34;6069264;23;45365;-89
2021/12/11 08:10:39;;;;;;;;;14.33;11.67;;;;;6.08;63.57;101369.88;6094837;23;46153;-88
2021/12/11 08:13:06;;;;;;;;;9.00;8.00;;;;;7.10;64.11;101531.59;6094270;23;45327;-89
2021/12/11 08:15:32;;;;;;;;;16.33;13.00;;;;;6.86;64.07;101501.09;6069025;23;45415;-88
2021/12/11 08:17:58;;;;;;;;;16.00;14.67;;;;;6.28;63.77;101410.16;6069858;23;45592;-89
2021/12/11 08:20:30;;;;;;;;;23.33;19.00;;;;;6.54;63.68;101453.91;6095107;23;45278;-89
2021/12/11 08:22:56;;;;;;;;;16.67;15.67;;;;;6.43;63.79;101427.59;6066725;23;45857;-91
2021/12/11 08:25:25;;;;;;;;;16.00;13.33;;;;;6.65;64.16;101451.97;6068094;23;45673;-87
2021/12/11 08:27:51;;;;;;;;;14.67;14.33;;;;;6.52;64.15;101443.31;6096339;23;45311;-90
2021/12/11 08:30:17;;;;;;;;;12.67;12.67;;;;;6.88;63.90;101499.28;6095498;23;45938;-92
2021/12/11 08:32:43;;;;;;;;;14.00;12.33;;;;;7.26;64.09;101556.09;6068249;23;46211;-87
2021/12/11 08:35:11;;;;;;;;;12.00;12.00;;;;;7.29;64.29;101549.84;6067925;23;45461;-88
2021/12/11 08:37:40;;;;;;;;;14.67;12.67;;;;;7.22;64.48;101521.69;6068462;23;45446;-89
2021/12/11 08:40:10;;;;;;;;;16.00;15.00;;;;;6.94;64.25;101466.50;6068519;23;47078;-87
2021/12/11 08:42:36;;;;;;;;;13.67;13.00;;;;;7.57;64.16;101545.81;6093084;23;45392;-87
2021/12/11 08:45:06;;;;;;;;;17.33;16.00;;;;;6.67;64.28;101391.00;6094138;23;45414;-88
2021/12/11 08:47:36;;;;;;;;;13.33;10.33;;;;;7.71;64.06;101558.81;6092973;23;45417;-88
2021/12/11 08:50:03;;;;;;;;;16.00;15.33;;;;;6.99;63.99;101424.88;6094867;23;46569;-89
2021/12/11 08:52:33;;;;;;;;;16.33;14.67;;;;;7.89;64.34;101564.66;6093683;23;45454;-84
2021/12/11 08:55:00;;;;;;;;;14.00;14.00;;;;;7.59;64.30;101511.28;6094245;23;45426;-85
2021/12/11 08:57:30;;;;;;;;;19.00;19.00;;;;;7.12;64.19;101422.91;6092016;23;45394;-87
2021/12/11 09:00:01;;;;;;;;;17.00;13.67;;;;;7.96;63.77;101547.72;6091917;23;45357;-87
2021/12/11 09:03:14;;;;;;;;;17.33;14.00;;;;;8.23;64.06;101586.13;6066821;23;45388;-87
2021/12/11 09:05:47;;;;;;;;;20.00;18.67;;;;;8.11;63.56;101555.38;6085541;23;45533;-86
2021/12/11 09:08:18;;;;;;;;;13.00;13.00;;;;;8.42;63.43;101589.28;6067372;23;45291;-86
2021/12/11 09:10:51;;;;;;;;;17.00;15.67;;;;;8.22;63.77;101541.88;6090480;23;45441;-84
2021/12/11 09:13:43;;;;;;;;;11.33;9.00;;;;;7.98;62.61;101504.31;6091231;23;45377;-86
2021/12/11 09:16:11;;;;;;;;;6.67;6.67;;;;;8.62;62.72;101597.72;6066244;23;45529;-85
2021/12/11 09:19:05;;;;;;;;;9.33;7.33;;;;;8.65;62.75;101605.63;6068241;23;45538;-86
2021/12/11 09:21:45;;;;;;;;;11.67;10.00;;;;;8.25;62.24;101533.84;6091732;23;45393;-86
2021/12/11 09:24:39;;;;;;;;;9.67;9.67;;;;;8.76;62.31;101607.19;6093738;23;45369;-86
2021/12/11 09:27:12;;;;;;;;;8.67;8.67;;;;;8.76;62.17;101616.03;6065972;23;45558;-86
2021/12/11 09:29:50;;;;;;;;;11.33;11.33;;;;;8.32;62.22;101551.41;6094925;23;45255;-85
2021/12/11 09:32:37;;;;;;;;;8.00;8.00;;;;;8.90;61.85;101633.41;6066724;23;47312;-85
2021/12/11 09:35:14;;;;;;;;;14.33;11.00;;;;;8.87;61.73;101629.06;6066956;23;45313;-86
2021/12/11 09:37:42;;;;;;;;;7.33;7.00;;;;;8.75;61.65;101600.97;6094356;23;45358;-86
2021/12/11 09:40:36;;;;;;;;;11.33;9.00;;;;;9.05;61.56;101647.25;6093312;23;45267;-85
2021/12/11 09:43:02;;;;;;;;;14.00;14.00;;;;;9.11;61.45;101648.91;6093763;23;45389;-85
2021/12/11 09:45:35;;;;;;;;;11.00;10.00;;;;;8.97;61.92;101611.13;6092411;23;45247;-84
2021/12/11 09:48:11;;;;;;;;;9.33;7.67;;;;;8.82;61.29;101573.34;6067454;23;45382;-85
2021/12/11 09:50:47;;;;;;;;;12.33;10.67;;;;;9.02;61.60;101591.50;6094594;23;45418;-85
2021/12/11 09:53:16;;;;;;;;;9.00;9.00;;;;;9.12;61.64;101594.81;6067932;23;47265;-88
2021/12/11 09:55:43;;;;;;;;;10.00;10.00;;;;;8.68;61.26;101526.72;6068331;23;45856;-86
2021/12/11 09:58:13;;;;;;;;;10.00;9.00;;;;;9.12;61.19;101608.09;6093166;23;45814;-90
2021/12/11 10:01:03;;;;;;;;;8.33;7.00;;;;;9.54;60.62;101657.66;6093851;23;45470;-87
2021/12/11 10:03:34;;;;;;;;;7.67;7.00;;;;;9.60;60.59;101665.47;6061968;23;47772;-84
2021/12/11 10:06:25;;;;;;;;;11.00;11.00;;;;;9.58;61.03;101649.56;6090057;23;45386;-84
2021/12/11 10:09:07;;;;;;;;;11.00;9.67;;;;;9.43;60.48;101615.31;6092691;23;45366;-84
2021/12/11 10:11:32;;;;;;;;;9.00;7.00;;;;;9.82;60.17;101680.00;6092229;23;45284;-84
2021/12/11 10:14:04;;;;;;;;;9.33;9.00;;;;;9.78;60.44;101659.69;6065043;23;48077;-84
2021/12/11 10:16:37;;;;;;;;;8.00;8.00;;;;;9.84;60.02;101664.00;6092696;23;45392;-84
2021/12/11 10:19:06;;;;;;;;;7.67;5.67;;;;;9.73;59.57;101642.97;6091730;23;45382;-85
2021/12/11 10:21:36;;;;;;;;;17.33;13.67;;;;;9.97;59.50;101665.41;6092809;23;45457;-86
2021/12/11 10:24:07;;;;;;;;;7.00;7.00;;;;;9.74;59.51;101631.41;6090221;23;45505;-85
2021/12/11 10:26:34;;;;;;;;;8.00;7.33;;;;;9.82;59.26;101631.19;6092592;23;45675;-84
2021/12/11 10:29:03;;;;;;;;;11.33;8.00;;;;;10.14;58.66;101678.28;6091338;23;45501;-85
2021/12/11 10:31:36;;;;;;;;;7.00;7.00;;;;;10.03;58.71;101648.41;6066873;23;45463;-87
2021/12/11 10:34:09;;;;;;;;;8.00;5.00;;;;;9.97;58.92;101629.91;6091168;23;46357;-83
2021/12/11 10:36:40;;;;;;;;;5.67;5.67;;;;;10.26;58.91;101680.63;6093444;23;45351;-83
2021/12/11 10:39:09;;;;;;;;;6.67;5.67;;;;;9.83;58.35;101593.91;6091324;23;45378;-82
2021/12/11 10:41:35;;;;;;;;;6.00;6.00;;;;;10.45;58.27;101685.47;6093185;23;45389;-83
2021/12/11 10:44:19;;;;;;;;;5.67;5.67;;;;;10.02;58.10;101596.94;6065328;23;48031;-85
2021/12/11 10:46:57;;;;;;;;;6.33;4.33;;;;;10.44;58.08;101647.28;6092783;23;45370;-83
2021/12/11 10:49:24;;;;;;;;;6.67;5.00;;;;;10.56;57.98;101659.38;6092267;23;45335;-84
2021/12/11 10:51:59;;;;;;;;;6.00;6.00;;;;;10.51;57.72;101631.97;6093181;23;45338;-87
2021/12/11 10:54:25;;;;;;;;;5.67;5.67;;;;;10.83;57.40;101684.34;6066004;23;48423;-85
2021/12/11 10:56:52;;;;;;;;;5.33;5.00;;;;;10.47;57.30;101619.69;6091831;23;45602;-85
2021/12/11 10:59:26;;;;;;;;;13.00;9.67;;;;;10.41;57.44;101612.72;6092124;23;45443;-85
2021/12/11 11:02:12;;;;;;;;;10.00;7.67;;;;;10.90;57.21;101682.38;6093725;23;45344;-85
2021/12/11 11:04:41;;;;;;;;;14.67;12.00;;;;;10.10;57.59;101560.28;6091225;23;45400;-86
2021/12/11 11:07:07;;;;;;;;;10.00;7.67;;;;;10.78;56.88;101657.81;6065806;23;45484;-87
2021/12/11 11:09:32;;;;;;;;;8.33;6.67;;;;;10.92;57.48;101678.75;6066853;23;45451;-86
2021/12/11 11:12:03;;;;;;;;;8.33;7.00;;;;;10.50;57.18;101600.91;6093069;23;45872;-87
2021/12/11 11:14:30;;;;;;;;;5.67;5.67;;;;;11.02;56.72;101675.81;6066334;23;48224;-84
2021/12/11 11:16:59;;;;;;;;;6.33;5.00;;;;;11.10;56.91;101690.66;6091263;23;45755;-85
2021/12/11 11:19:27;;;;;;;;;4.67;4.67;;;;;10.97;56.89;101671.47;6065194;23;45328;-89
2021/12/11 11:21:58;;;;;;;;;5.67;5.67;;;;;11.10;56.88;101681.78;6092528;23;45570;-86
2021/12/11 11:24:30;;;;;;;;;3.67;3.33;;;;;11.13;56.41;101689.69;6093010;23;45359;-85
2021/12/11 11:26:56;;;;;;;;;7.33;4.67;;;;;11.15;56.20;101674.50;6092224;23;45387;-89
2021/12/11 11:29:24;;;;;;;;;5.33;5.33;;;;;11.22;56.75;101675.19;6093271;23;45327;-84
2021/12/11 11:31:53;;;;;;;;;5.67;4.00;;;;;11.15;56.24;101661.16;6064822;23;45470;-89
2021/12/11 11:34:21;;;;;;;;;5.00;5.00;;;;;11.22;56.67;101678.72;6064437;23;48052;-89
2021/12/11 11:36:48;;;;;;;;;6.00;5.33;;;;;10.40;56.75;101539.03;6092389;23;45319;-89
2021/12/11 11:39:16;;;;;;;;;5.33;3.67;;;;;10.78;56.40;101612.50;6092609;23;45495;-89
2021/12/11 11:41:46;;;;;;;;;5.67;4.00;;;;;10.67;55.71;101606.59;6092223;23;45374;-89
2021/12/11 11:44:12;;;;;;;;;9.33;9.00;;;;;10.65;56.23;101620.91;6063900;23;47073;-88
2021/12/11 11:46:39;;;;;;;;;12.67;10.00;;;;;10.09;55.95;101537.25;6063863;23;45383;-90
2021/12/11 11:49:06;;;;;;;;;7.00;4.00;;;;;10.29;56.38;101573.09;6065074;23;45398;-88
2021/12/11 11:51:38;;;;;;;;;7.00;7.00;;;;;10.37;56.79;101597.72;6093192;23;45340;-91
2021/12/11 11:54:06;;;;;;;;;15.00;14.00;;;;;9.69;56.16;101469.16;6065937;23;48358;-89
2021/12/11 11:56:37;;;;;;;;;8.00;6.00;;;;;10.99;56.91;101690.97;6093091;23;45550;-86
2021/12/11 11:59:05;;;;;;;;;6.33;6.33;;;;;10.73;56.01;101657.09;6092290;23;45395;-90